Time;durP1;ratioP1;P1;durP2;ratioP2;P2;SDS_P1;SDS_P2;PMS_P1;PMS_P2;Temp;Humidity;BMP_temperature;BMP_pressure;BME280_temperature;BME280_humidity;BME280_pressure;Samples;Min_cycle;Max_cycle;Signal;HPM_P1;HPM_P2
2022/03/02 00:01:01;;;;;;;47.30;23.17;;;-1.40;99.90;;;;;;2060955;28;20860;-74
2022/03/02 00:02:01;;;;;;;43.08;22.30;;;-1.40;99.90;;;;;;2061857;28;20037;-76
2022/03/02 00:03:02;;;;;;;48.28;22.50;;;-1.40;99.90;;;;;;2063783;28;20042;-76
2022/03/02 00:04:03;;;;;;;47.17;23.30;;;-1.40;99.90;;;;;;2063576;28;20042;-75
2022/03/02 00:05:04;;;;;;;47.17;22.88;;;-1.40;99.90;;;;;;2068548;28;20036;-75
2022/03/02 00:06:05;;;;;;;48.33;23.13;;;-1.40;99.90;;;;;;2067141;28;20030;-74
2022/03/02 00:07:06;;;;;;;48.63;23.65;;;-1.40;99.90;;;;;;2060196;28;20034;-75
2022/03/02 00:08:07;;;;;;;47.13;22.70;;;-1.50;99.90;;;;;;2058805;28;20033;-75
2022/03/02 00:09:07;;;;;;;44.63;22.77;;;-1.50;99.90;;;;;;2060689;28;20636;-75
2022/03/02 00:10:09;;;;;;;43.75;22.45;;;-1.50;99.90;;;;;;2060011;28;20045;-75
2022/03/02 00:11:11;;;;;;;45.50;22.17;;;-1.50;99.90;;;;;;2061393;28;20026;-75
2022/03/02 00:12:12;;;;;;;43.65;21.85;;;-1.50;99.90;;;;;;2067370;28;20375;-73
2022/03/02 00:13:13;;;;;;;43.83;22.35;;;-1.50;99.90;;;;;;2057086;28;20041;-73
2022/03/02 00:14:13;;;;;;;42.72;22.70;;;-1.50;99.90;;;;;;2056723;28;20037;-73
2022/03/02 00:15:14;;;;;;;38.53;21.13;;;-1.60;99.90;;;;;;2056756;28;20086;-76
2022/03/02 00:16:16;;;;;;;41.55;22.27;;;-1.50;99.90;;;;;;2055479;28;20019;-74
2022/03/02 00:17:17;;;;;;;37.55;21.13;;;-1.60;99.90;;;;;;2059031;28;20030;-74
2022/03/02 00:18:18;;;;;;;39.83;21.58;;;-1.60;99.90;;;;;;2061044;28;20152;-76
2022/03/02 00:19:18;;;;;;;40.35;21.67;;;-1.60;99.90;;;;;;2058870;28;20173;-76
2022/03/02 00:20:19;;;;;;;36.78;20.73;;;-1.60;99.90;;;;;;2064751;28;20030;-74
2022/03/02 00:21:20;;;;;;;36.08;21.02;;;-1.60;99.90;;;;;;2061848;28;20027;-74
2022/03/02 00:22:21;;;;;;;35.97;20.40;;;-1.60;99.90;;;;;;2061335;28;20122;-75
2022/03/02 00:23:21;;;;;;;39.05;21.25;;;-1.60;99.90;;;;;;2061865;28;20071;-75
2022/03/02 00:24:22;;;;;;;37.67;21.27;;;-1.50;99.90;;;;;;2058504;28;20065;-75
2022/03/02 00:25:23;;;;;;;36.80;21.40;;;-1.50;99.90;;;;;;2059079;28;20038;-79
2022/03/02 00:26:24;;;;;;;37.97;21.90;;;-1.50;99.90;;;;;;2054302;28;20041;-77
2022/03/02 00:27:25;;;;;;;39.08;21.33;;;-1.50;99.90;;;;;;2064960;28;20113;-75
2022/03/02 00:28:26;;;;;;;38.47;22.20;;;-1.50;99.90;;;;;;2056486;28;20034;-72
2022/03/02 00:29:26;;;;;;;44.20;22.58;;;-1.50;99.90;;;;;;2057046;28;20122;-75
2022/03/02 00:30:28;;;;;;;46.47;23.05;;;-1.50;99.90;;;;;;2064647;28;20038;-74
2022/03/02 00:31:32;;;;;;;46.05;22.92;;;-1.50;99.90;;;;;;2056200;28;20023;-76
2022/03/02 00:32:32;;;;;;;49.70;24.33;;;-1.50;99.90;;;;;;2058123;28;20035;-76
2022/03/02 00:33:33;;;;;;;52.88;23.70;;;-1.50;99.90;;;;;;2062496;28;20030;-76
2022/03/02 00:34:34;;;;;;;44.85;22.38;;;-1.60;99.90;;;;;;2060417;28;20047;-76
2022/03/02 00:35:35;;;;;;;44.53;22.00;;;-1.60;99.90;;;;;;2061616;28;20056;-75
2022/03/02 00:36:35;;;;;;;42.50;22.38;;;-1.60;99.90;;;;;;2060197;28;20077;-75
2022/03/02 00:37:36;;;;;;;43.83;22.35;;;-1.60;99.90;;;;;;2063735;28;20385;-75
2022/03/02 00:38:37;;;;;;;39.42;21.58;;;-1.60;99.90;;;;;;2058936;28;20054;-76
2022/03/02 00:39:37;;;;;;;40.33;21.98;;;-1.60;99.90;;;;;;2060714;28;20035;-76
2022/03/02 00:40:39;;;;;;;41.53;21.25;;;-1.70;99.90;;;;;;2059240;28;20026;-77
2022/03/02 00:41:40;;;;;;;38.53;21.25;;;-1.70;99.90;;;;;;2063791;28;20030;-76
2022/03/02 00:42:40;;;;;;;36.15;21.42;;;-1.70;99.90;;;;;;2052656;28;20487;-73
2022/03/02 00:43:41;;;;;;;36.25;20.33;;;-1.70;99.90;;;;;;2061074;28;20037;-74
2022/03/02 00:44:42;;;;;;;38.47;21.27;;;-1.70;99.90;;;;;;2061600;28;20027;-73
2022/03/02 00:45:43;;;;;;;37.03;21.17;;;-1.70;99.90;;;;;;2061506;28;20026;-75
2022/03/02 00:46:44;;;;;;;34.88;20.58;;;-1.70;99.90;;;;;;2062022;28;20041;-74
2022/03/02 00:47:45;;;;;;;35.08;20.60;;;-1.70;99.90;;;;;;2063009;28;20050;-74
2022/03/02 00:48:46;;;;;;;36.67;20.70;;;-1.70;99.90;;;;;;2065179;28;20030;-72
2022/03/02 00:49:47;;;;;;;36.50;21.48;;;-1.70;99.90;;;;;;2073196;28;20026;-74
2022/03/02 00:50:48;;;;;;;34.25;20.52;;;-1.80;99.90;;;;;;2072964;28;20029;-73
2022/03/02 00:51:49;;;;;;;38.38;21.02;;;-1.70;99.90;;;;;;2065019;28;20023;-74
2022/03/02 00:52:50;;;;;;;39.63;22.05;;;-1.70;99.90;;;;;;2065028;28;20042;-74
2022/03/02 00:53:52;;;;;;;37.90;20.88;;;-1.80;99.90;;;;;;2067783;28;20034;-74
2022/03/02 00:54:53;;;;;;;41.45;21.95;;;-1.70;99.90;;;;;;2067657;28;20050;-75
2022/03/02 00:55:54;;;;;;;40.70;21.73;;;-1.80;99.90;;;;;;2064085;28;20041;-75
2022/03/02 00:56:59;;;;;;;43.08;21.95;;;-1.80;99.90;;;;;;2063530;28;20027;-75
2022/03/02 00:58:00;;;;;;;42.85;22.20;;;-1.80;99.90;;;;;;2060987;28;20397;-75
2022/03/02 00:59:01;;;;;;;39.20;21.98;;;-1.80;99.90;;;;;;2058749;28;20031;-76
2022/03/02 01:00:02;;;;;;;40.88;22.35;;;-1.80;99.90;;;;;;2060935;28;20027;-74
2022/03/02 01:01:03;;;;;;;37.95;21.83;;;-1.80;99.90;;;;;;2064192;28;20031;-74
2022/03/02 01:02:04;;;;;;;38.85;21.77;;;-1.80;99.90;;;;;;2059478;28;20086;-75
2022/03/02 01:03:05;;;;;;;36.72;20.83;;;-1.80;99.90;;;;;;2067872;28;20045;-75
2022/03/02 01:04:07;;;;;;;38.97;21.50;;;-1.90;99.90;;;;;;2069269;28;20117;-73
2022/03/02 01:05:11;;;;;;;37.28;21.10;;;-1.90;99.90;;;;;;2064964;28;20034;-75
2022/03/02 01:06:18;;;;;;;40.40;21.15;;;-1.90;99.90;;;;;;2058512;28;20508;-72
2022/03/02 01:07:19;;;;;;;36.38;20.10;;;-1.90;99.90;;;;;;2054792;28;20031;-74
2022/03/02 01:08:20;;;;;;;35.22;20.80;;;-1.90;99.90;;;;;;2050768;28;20106;-73
2022/03/02 01:09:21;;;;;;;33.22;19.80;;;-1.90;99.90;;;;;;2065720;28;20086;-76
2022/03/02 01:10:22;;;;;;;33.90;20.13;;;-1.90;99.90;;;;;;2069926;28;20030;-74
2022/03/02 01:11:23;;;;;;;36.92;21.15;;;-1.90;99.90;;;;;;2073262;28;20022;-74
2022/03/02 01:12:23;;;;;;;36.97;20.85;;;-1.90;99.90;;;;;;2068313;28;20080;-75
2022/03/02 01:13:24;;;;;;;33.70;20.45;;;-1.90;99.90;;;;;;2062734;28;20526;-76
2022/03/02 01:14:25;;;;;;;34.75;19.98;;;-2.00;99.90;;;;;;2062185;28;20027;-74
2022/03/02 01:15:26;;;;;;;37.28;20.85;;;-1.90;99.90;;;;;;2061806;28;20046;-75
2022/03/02 01:16:27;;;;;;;37.00;20.42;;;-2.00;99.90;;;;;;2057814;28;20398;-74
2022/03/02 01:17:28;;;;;;;38.30;21.25;;;-2.00;99.90;;;;;;2062216;28;20026;-76
2022/03/02 01:18:29;;;;;;;38.72;20.30;;;-2.00;99.90;;;;;;2069181;28;20026;-76
2022/03/02 01:19:30;;;;;;;38.85;20.98;;;-2.00;99.90;;;;;;2062659;28;20086;-74
2022/03/02 01:20:30;;;;;;;37.00;21.60;;;-2.00;99.90;;;;;;2061298;28;20431;-75
2022/03/02 01:21:31;;;;;;;41.90;21.88;;;-2.00;99.90;;;;;;2064205;28;20026;-76
2022/03/02 01:22:33;;;;;;;40.95;21.00;;;-2.00;99.90;;;;;;2062235;28;20031;-77
2022/03/02 01:23:34;;;;;;;40.15;21.67;;;-2.00;99.90;;;;;;2073455;28;20484;-77
2022/03/02 01:24:35;;;;;;;37.95;21.10;;;-2.00;99.90;;;;;;2054826;28;20121;-74
2022/03/02 01:25:36;;;;;;;38.33;20.15;;;-2.00;99.90;;;;;;2057679;28;20039;-73
2022/03/02 01:26:37;;;;;;;37.10;20.17;;;-2.00;99.90;;;;;;2066318;28;20026;-75
2022/03/02 01:27:38;;;;;;;39.13;21.77;;;-2.10;99.90;;;;;;2062183;28;20508;-74
2022/03/02 01:28:44;;;;;;;36.40;20.40;;;-2.00;99.90;;;;;;2062354;28;20033;-74
2022/03/02 01:29:48;;;;;;;36.08;19.05;;;-2.10;99.90;;;;;;2061992;28;20049;-75
2022/03/02 01:30:48;;;;;;;37.47;20.30;;;-2.10;99.90;;;;;;2066543;28;20442;-75
2022/03/02 01:31:49;;;;;;;34.00;19.95;;;-2.10;99.90;;;;;;2060733;28;20034;-75
2022/03/02 01:32:51;;;;;;;35.00;20.10;;;-2.10;99.90;;;;;;2061022;28;20097;-74
2022/03/02 01:33:52;;;;;;;34.67;20.45;;;-2.10;99.90;;;;;;2064326;28;20049;-72
2022/03/02 01:34:53;;;;;;;37.83;20.63;;;-2.10;99.90;;;;;;2065914;28;20070;-73
2022/03/02 01:35:54;;;;;;;34.35;19.45;;;-2.10;99.90;;;;;;2053735;28;20020;-73
2022/03/02 01:36:54;;;;;;;32.20;19.40;;;-2.10;99.90;;;;;;2058687;28;20019;-75
2022/03/02 01:37:55;;;;;;;35.13;20.30;;;-2.10;99.90;;;;;;2059044;28;20027;-73
2022/03/02 01:38:56;;;;;;;33.80;20.15;;;-2.10;99.90;;;;;;2068760;28;20030;-72
2022/03/02 01:39:56;;;;;;;34.88;19.48;;;-2.10;99.90;;;;;;2070286;28;20061;-73
2022/03/02 01:40:57;;;;;;;34.08;20.17;;;-2.10;99.90;;;;;;2071028;28;20102;-73
2022/03/02 01:41:58;;;;;;;32.55;18.65;;;-2.10;99.90;;;;;;2069655;28;20030;-75
2022/03/02 01:42:59;;;;;;;33.95;19.73;;;-2.10;99.90;;;;;;2060190;28;20089;-74
2022/03/02 01:44:00;;;;;;;34.25;19.67;;;-2.10;99.90;;;;;;2062189;28;20033;-72
2022/03/02 01:45:02;;;;;;;34.25;19.67;;;-2.10;99.90;;;;;;2060300;28;20142;-73
2022/03/02 01:46:03;;;;;;;33.55;19.33;;;-2.10;99.90;;;;;;2062700;28;20030;-74
2022/03/02 01:47:05;;;;;;;35.85;19.73;;;-2.10;99.90;;;;;;2070382;28;20042;-74
2022/03/02 01:48:06;;;;;;;43.33;21.80;;;-2.10;99.90;;;;;;2067710;28;20022;-75
2022/03/02 01:49:07;;;;;;;42.55;21.95;;;-2.20;99.90;;;;;;2062770;28;20097;-75
2022/03/02 01:50:10;;;;;;;48.00;23.00;;;-2.20;99.90;;;;;;2062093;28;20030;-74
2022/03/02 01:51:12;;;;;;;46.30;21.90;;;-2.20;99.90;;;;;;2069204;28;20521;-73
2022/03/02 01:52:12;;;;;;;50.28;23.25;;;-2.20;99.90;;;;;;2073134;28;20509;-73
2022/03/02 01:53:13;;;;;;;49.15;23.25;;;-2.20;99.90;;;;;;2057922;28;20081;-74
2022/03/02 01:54:14;;;;;;;50.90;23.92;;;-2.20;99.90;;;;;;2066096;28;20026;-74
2022/03/02 01:55:15;;;;;;;45.55;22.02;;;-2.20;99.90;;;;;;2074226;28;20032;-73
2022/03/02 01:56:16;;;;;;;44.25;22.10;;;-2.20;99.90;;;;;;2066361;28;20022;-73
2022/03/02 01:57:17;;;;;;;40.28;21.70;;;-2.20;99.90;;;;;;2065373;28;20033;-74
2022/03/02 01:58:18;;;;;;;39.33;21.27;;;-2.20;99.90;;;;;;2060951;28;20028;-77
2022/03/02 01:59:19;;;;;;;38.67;21.70;;;-2.20;99.90;;;;;;2063247;28;20026;-75
2022/03/02 02:00:22;;;;;;;39.42;21.13;;;-2.20;99.90;;;;;;2068305;28;20030;-75
2022/03/02 02:01:23;;;;;;;40.72;21.05;;;-2.20;99.90;;;;;;2070242;28;20053;-75
2022/03/02 02:02:24;;;;;;;43.92;21.35;;;-2.20;99.90;;;;;;2068138;28;20038;-75
2022/03/02 02:03:25;;;;;;;43.92;21.40;;;-2.20;99.90;;;;;;2069629;28;20549;-75
2022/03/02 02:04:26;;;;;;;49.65;22.55;;;-2.20;99.90;;;;;;2054600;28;20058;-74
2022/03/02 02:05:27;;;;;;;49.83;22.60;;;-2.20;99.90;;;;;;2056796;28;20427;-75
2022/03/02 02:06:29;;;;;;;50.47;22.45;;;-2.20;99.90;;;;;;2061354;28;20045;-74
2022/03/02 02:07:29;;;;;;;48.10;22.27;;;-2.20;99.90;;;;;;2052714;28;20027;-74
2022/03/02 02:08:31;;;;;;;45.95;22.60;;;-2.30;99.90;;;;;;2060051;28;20038;-75
2022/03/02 02:09:32;;;;;;;39.30;20.95;;;-2.30;99.90;;;;;;2060673;28;20027;-74
2022/03/02 02:10:32;;;;;;;38.92;20.85;;;-2.30;99.90;;;;;;2060535;28;20550;-74
2022/03/02 02:11:34;;;;;;;42.10;22.02;;;-2.30;99.90;;;;;;2062427;28;20086;-75
2022/03/02 02:12:35;;;;;;;45.80;22.23;;;-2.30;99.90;;;;;;2068416;28;20014;-75
2022/03/02 02:13:36;;;;;;;57.88;24.50;;;-2.30;99.90;;;;;;2062097;28;20031;-73
2022/03/02 02:14:37;;;;;;;50.45;23.50;;;-2.30;99.90;;;;;;2060828;28;20026;-75
2022/03/02 02:15:38;;;;;;;52.45;23.83;;;-2.40;99.90;;;;;;2062917;28;20030;-75
2022/03/02 02:16:39;;;;;;;47.15;22.95;;;-2.40;99.90;;;;;;2060700;28;20037;-75
2022/03/02 02:17:41;;;;;;;47.05;22.70;;;-2.40;99.90;;;;;;2057137;28;20728;-76
2022/03/02 02:18:42;;;;;;;48.22;23.42;;;-2.40;99.90;;;;;;2058083;28;20097;-73
2022/03/02 02:19:43;;;;;;;49.13;23.02;;;-2.30;99.90;;;;;;2058825;28;20066;-72
2022/03/02 02:20:44;;;;;;;48.75;22.45;;;-2.40;99.90;;;;;;2058951;28;20027;-75
2022/03/02 02:21:48;;;;;;;44.05;21.90;;;-2.40;99.90;;;;;;2068415;28;20054;-71
2022/03/02 02:22:49;;;;;;;45.50;22.88;;;-2.40;99.90;;;;;;2066783;28;20026;-72
2022/03/02 02:23:50;;;;;;;45.22;23.73;;;-2.40;99.90;;;;;;2059125;28;20027;-72
2022/03/02 02:24:51;;;;;;;45.47;22.88;;;-2.40;99.90;;;;;;2058883;28;20031;-72
2022/03/02 02:25:51;;;;;;;42.97;22.45;;;-2.40;99.90;;;;;;2059647;28;20050;-72
2022/03/02 02:26:52;;;;;;;37.92;21.27;;;-2.40;99.90;;;;;;2066315;28;20032;-72
2022/03/02 02:27:53;;;;;;;40.22;21.77;;;-2.40;99.90;;;;;;2065767;28;20672;-74
2022/03/02 02:28:55;;;;;;;41.05;21.50;;;-2.40;99.90;;;;;;2057972;28;20034;-71
2022/03/02 02:29:57;;;;;;;38.53;20.25;;;-2.40;99.90;;;;;;2049760;28;20059;-72
2022/03/02 02:31:00;;;;;;;38.47;21.05;;;-2.40;99.90;;;;;;2057968;28;20037;-73
2022/03/02 02:32:00;;;;;;;37.08;21.20;;;-2.40;99.90;;;;;;2065749;28;20027;-73
2022/03/02 02:33:01;;;;;;;38.80;20.20;;;-2.40;99.90;;;;;;2066082;28;20019;-74
2022/03/02 02:34:02;;;;;;;41.03;21.42;;;-2.40;99.90;;;;;;2058207;28;20031;-73
2022/03/02 02:35:03;;;;;;;39.53;21.27;;;-2.50;99.90;;;;;;2058245;28;20485;-73
2022/03/02 02:36:04;;;;;;;38.78;20.92;;;-2.40;99.90;;;;;;2058147;28;20105;-74
2022/03/02 02:37:07;;;;;;;37.47;20.83;;;-2.50;99.90;;;;;;2058078;28;20482;-73
2022/03/02 02:38:09;;;;;;;38.67;20.45;;;-2.50;99.90;;;;;;2057451;28;20018;-72
2022/03/02 02:39:10;;;;;;;42.05;21.25;;;-2.50;99.90;;;;;;2057686;28;20503;-73
2022/03/02 02:40:16;;;;;;;40.85;20.30;;;-2.50;99.90;;;;;;2058325;28;20027;-74
2022/03/02 02:41:18;;;;;;;40.90;20.45;;;-2.50;99.90;;;;;;2058155;28;20023;-74
2022/03/02 02:42:19;;;;;;;43.28;21.35;;;-2.50;99.90;;;;;;2057616;28;20034;-73
2022/03/02 02:43:23;;;;;;;41.03;20.00;;;-2.50;99.90;;;;;;2058036;28;20034;-73
2022/03/02 02:44:23;;;;;;;39.45;20.38;;;-2.50;99.90;;;;;;2058117;28;20077;-73
2022/03/02 02:45:24;;;;;;;40.78;21.42;;;-2.50;99.90;;;;;;2058181;28;20030;-72
2022/03/02 02:46:25;;;;;;;40.90;21.05;;;-2.50;99.90;;;;;;2057604;28;20054;-76
2022/03/02 02:47:26;;;;;;;44.20;21.10;;;-2.50;99.90;;;;;;2057603;28;20026;-74
2022/03/02 02:48:26;;;;;;;40.78;20.75;;;-2.60;99.90;;;;;;2057190;28;20510;-73
2022/03/02 02:49:27;;;;;;;40.63;20.90;;;-2.60;99.90;;;;;;2058013;28;20109;-73
2022/03/02 02:50:31;;;;;;;41.83;21.42;;;-2.60;99.90;;;;;;2058017;28;20058;-73
2022/03/02 02:51:31;;;;;;;38.40;20.98;;;-2.60;99.90;;;;;;2057645;28;20439;-72
2022/03/02 02:52:38;;;;;;;39.20;20.60;;;-2.60;99.90;;;;;;2057508;28;20030;-72
2022/03/02 02:53:39;;;;;;;43.20;21.83;;;-2.60;99.90;;;;;;2065039;28;20022;-72
2022/03/02 02:54:41;;;;;;;41.50;21.08;;;-2.60;99.90;;;;;;2057467;28;20572;-73
2022/03/02 02:55:44;;;;;;;44.42;21.23;;;-2.60;99.90;;;;;;2057688;28;20031;-73
2022/03/02 02:56:45;;;;;;;40.03;21.42;;;-2.60;99.90;;;;;;2057677;28;20030;-72
2022/03/02 02:57:46;;;;;;;44.88;21.73;;;-2.60;99.90;;;;;;2057837;28;20072;-75
2022/03/02 02:58:46;;;;;;;46.70;22.83;;;-2.60;99.90;;;;;;2058314;28;20034;-73
2022/03/02 02:59:47;;;;;;;41.83;22.80;;;-2.70;99.90;;;;;;2058502;28;20121;-73
2022/03/02 03:00:49;;;;;;;43.17;22.65;;;-2.70;99.90;;;;;;2058265;28;20525;-76
2022/03/02 03:01:50;;;;;;;39.60;21.60;;;-2.70;99.90;;;;;;2058091;28;20058;-74
2022/03/02 03:02:53;;;;;;;41.97;22.27;;;-2.70;99.90;;;;;;2057431;28;20406;-73
2022/03/02 03:03:54;;;;;;;41.08;21.40;;;-2.70;99.90;;;;;;2049497;28;20054;-73
2022/03/02 03:04:54;;;;;;;36.05;20.55;;;-2.70;99.90;;;;;;2057389;28;20050;-75
2022/03/02 03:05:55;;;;;;;38.60;21.13;;;-2.70;99.90;;;;;;2057791;28;20081;-73
2022/03/02 03:06:56;;;;;;;39.53;21.00;;;-2.70;99.90;;;;;;2057896;28;20030;-73
2022/03/02 03:07:59;;;;;;;39.25;20.48;;;-2.70;99.90;;;;;;2057172;28;20038;-74
2022/03/02 03:09:00;;;;;;;40.28;21.08;;;-2.70;99.90;;;;;;2057401;28;20090;-72
2022/03/02 03:10:00;;;;;;;44.22;21.92;;;-2.70;99.90;;;;;;2058069;28;20057;-73
2022/03/02 03:11:03;;;;;;;46.80;21.92;;;-2.70;99.90;;;;;;2057886;28;20113;-73
2022/03/02 03:12:04;;;;;;;42.58;22.33;;;-2.80;99.90;;;;;;2057912;28;20050;-75
2022/03/02 03:13:06;;;;;;;43.33;21.77;;;-2.70;99.90;;;;;;2065468;28;20422;-73
2022/03/02 03:14:11;;;;;;;43.90;22.25;;;-2.70;99.90;;;;;;2065038;28;20033;-74
2022/03/02 03:15:15;;;;;;;43.35;22.08;;;-2.70;99.90;;;;;;2057967;28;20069;-75
2022/03/02 03:16:15;;;;;;;38.95;20.83;;;-2.70;99.90;;;;;;2057885;28;20034;-71
2022/03/02 03:17:16;;;;;;;41.80;21.67;;;-2.80;99.90;;;;;;2057078;28;20461;-72
2022/03/02 03:18:17;;;;;;;39.30;21.10;;;-2.80;99.90;;;;;;2057226;28;20070;-75
2022/03/02 03:19:17;;;;;;;41.00;21.45;;;-2.80;99.90;;;;;;2057610;28;20034;-73
2022/03/02 03:20:22;;;;;;;39.00;21.10;;;-2.80;99.90;;;;;;2065054;28;20068;-77
2022/03/02 03:21:22;;;;;;;38.50;21.17;;;-2.80;99.90;;;;;;2064455;28;20037;-74
2022/03/02 03:22:23;;;;;;;35.20;20.38;;;-2.80;99.90;;;;;;2057622;28;20053;-73
2022/03/02 03:23:23;;;;;;;37.95;20.73;;;-2.80;99.90;;;;;;2057041;28;20486;-74
2022/03/02 03:24:24;;;;;;;40.50;21.50;;;-2.80;99.90;;;;;;2048907;28;20035;-75
2022/03/02 03:25:25;;;;;;;37.20;21.38;;;-2.80;99.90;;;;;;2056996;28;20026;-73
2022/03/02 03:26:26;;;;;;;35.78;20.80;;;-2.80;99.90;;;;;;2057862;28;20082;-75
2022/03/02 03:27:28;;;;;;;35.80;21.42;;;-2.80;99.90;;;;;;2057159;28;20137;-75
2022/03/02 03:28:28;;;;;;;36.60;21.35;;;-2.80;99.90;;;;;;2057090;28;20026;-72
2022/03/02 03:29:29;;;;;;;35.85;21.23;;;-2.80;99.90;;;;;;2057835;28;20058;-75
2022/03/02 03:30:30;;;;;;;37.30;21.70;;;-2.80;99.90;;;;;;2058072;28;20031;-72
2022/03/02 03:31:31;;;;;;;37.80;21.40;;;-2.80;99.90;;;;;;2057701;28;20019;-76
2022/03/02 03:32:32;;;;;;;37.65;21.25;;;-2.80;99.90;;;;;;2057676;28;20073;-73
2022/03/02 03:33:33;;;;;;;37.92;21.98;;;-2.80;99.90;;;;;;2058143;28;20570;-72
2022/03/02 03:34:33;;;;;;;35.05;21.63;;;-2.80;99.90;;;;;;2057476;28;20398;-74
2022/03/02 03:35:34;;;;;;;35.50;20.95;;;-2.80;99.90;;;;;;2056825;28;20042;-72
2022/03/02 03:36:35;;;;;;;36.30;20.65;;;-2.80;99.90;;;;;;2057024;28;20117;-74
2022/03/02 03:37:36;;;;;;;38.33;21.48;;;-2.80;99.90;;;;;;2057096;28;20027;-74
2022/03/02 03:38:37;;;;;;;37.50;21.20;;;-2.80;99.90;;;;;;2057096;28;20034;-75
2022/03/02 03:39:37;;;;;;;37.22;21.45;;;-2.80;99.90;;;;;;2049060;28;20071;-75
2022/03/02 03:40:38;;;;;;;37.20;21.42;;;-2.80;99.90;;;;;;2057076;28;20037;-71
2022/03/02 03:41:38;;;;;;;38.03;21.30;;;-2.80;99.90;;;;;;2057782;28;20114;-73
2022/03/02 03:42:40;;;;;;;37.00;21.73;;;-2.80;99.90;;;;;;2057626;28;20101;-75
2022/03/02 03:43:41;;;;;;;38.78;21.55;;;-2.80;99.90;;;;;;2057589;28;20035;-74
2022/03/02 03:44:42;;;;;;;36.88;21.42;;;-2.80;99.90;;;;;;2057211;28;20038;-75
2022/03/02 03:45:42;;;;;;;36.58;20.63;;;-2.80;99.90;;;;;;2057307;28;20041;-75
2022/03/02 03:46:43;;;;;;;37.95;22.48;;;-2.80;99.90;;;;;;2056943;28;20371;-74
2022/03/02 03:47:44;;;;;;;39.00;22.23;;;-2.80;99.90;;;;;;2048804;28;20037;-73
2022/03/02 03:48:45;;;;;;;38.70;21.83;;;-2.80;99.90;;;;;;2057232;28;20119;-71
2022/03/02 03:49:46;;;;;;;38.30;21.80;;;-2.80;99.90;;;;;;2049321;29;20031;-74
2022/03/02 03:50:46;;;;;;;37.67;22.58;;;-2.80;99.90;;;;;;2057270;28;20030;-72
2022/03/02 03:51:47;;;;;;;39.35;22.25;;;-2.80;99.90;;;;;;2058059;28;20035;-72
2022/03/02 03:52:48;;;;;;;35.40;21.05;;;-2.80;99.90;;;;;;2064859;28;20221;-74
2022/03/02 03:53:48;;;;;;;37.72;21.60;;;-2.80;99.90;;;;;;2063811;28;20035;-74
2022/03/02 03:54:49;;;;;;;37.47;21.88;;;-2.80;99.90;;;;;;2056961;28;20035;-74
2022/03/02 03:55:50;;;;;;;40.30;21.45;;;-2.90;99.90;;;;;;2057410;28;20521;-75
2022/03/02 03:56:50;;;;;;;36.58;21.35;;;-2.90;99.90;;;;;;2057346;28;20066;-74
2022/03/02 03:57:51;;;;;;;38.05;21.42;;;-2.90;99.90;;;;;;2064571;28;20120;-72
2022/03/02 03:58:52;;;;;;;38.78;22.13;;;-2.90;99.90;;;;;;2064842;28;20594;-74
2022/03/02 03:59:52;;;;;;;39.20;21.90;;;-2.90;99.90;;;;;;2056804;28;20118;-74
2022/03/02 04:00:53;;;;;;;38.45;21.33;;;-2.90;99.90;;;;;;2048883;29;20043;-74
2022/03/02 04:01:54;;;;;;;36.85;21.67;;;-2.90;99.90;;;;;;2056670;28;20038;-76
2022/03/02 04:02:54;;;;;;;36.38;21.15;;;-2.90;99.90;;;;;;2057296;28;20025;-74
2022/03/02 04:03:55;;;;;;;34.58;20.38;;;-2.90;99.90;;;;;;2057389;28;20434;-74
2022/03/02 04:04:55;;;;;;;35.25;20.23;;;-2.90;99.90;;;;;;2056558;28;20038;-72
2022/03/02 04:05:56;;;;;;;36.85;21.08;;;-2.90;99.90;;;;;;2056876;28;20030;-73
2022/03/02 04:06:57;;;;;;;34.25;20.23;;;-2.90;99.90;;;;;;2056823;28;20031;-72
2022/03/02 04:07:57;;;;;;;37.60;21.25;;;-2.80;99.90;;;;;;2056688;28;20062;-74
2022/03/02 04:08:58;;;;;;;35.28;21.17;;;-2.80;99.90;;;;;;2056789;28;20082;-74
2022/03/02 04:09:59;;;;;;;39.03;21.33;;;-2.80;99.90;;;;;;2056764;28;20023;-74
2022/03/02 04:11:00;;;;;;;39.55;22.02;;;-2.80;99.90;;;;;;2057354;28;20034;-74
2022/03/02 04:12:00;;;;;;;37.88;21.15;;;-2.80;99.90;;;;;;2057348;28;20038;-74
2022/03/02 04:13:01;;;;;;;35.75;20.75;;;-2.80;99.90;;;;;;2056988;28;20062;-71
2022/03/02 04:14:02;;;;;;;36.95;21.33;;;-2.80;99.90;;;;;;2056830;28;20607;-73
2022/03/02 04:15:04;;;;;;;37.95;21.27;;;-2.80;99.90;;;;;;2057519;28;20030;-74
2022/03/02 04:16:05;;;;;;;35.70;21.10;;;-2.80;99.90;;;;;;2057652;28;20022;-74
2022/03/02 04:17:06;;;;;;;36.17;21.65;;;-2.80;99.90;;;;;;2064954;28;20022;-76
2022/03/02 04:18:07;;;;;;;38.25;21.65;;;-2.80;99.90;;;;;;2064692;28;20410;-74
2022/03/02 04:19:08;;;;;;;35.72;20.48;;;-2.70;99.90;;;;;;2057896;28;20030;-73
2022/03/02 04:20:09;;;;;;;37.30;20.73;;;-2.70;99.90;;;;;;2057307;28;20026;-75
2022/03/02 04:21:10;;;;;;;34.20;20.40;;;-2.70;99.90;;;;;;2057307;28;20023;-72
2022/03/02 04:22:10;;;;;;;34.80;20.52;;;-2.70;99.90;;;;;;2064636;28;20061;-76
2022/03/02 04:23:11;;;;;;;35.33;20.50;;;-2.70;99.90;;;;;;2064660;28;20128;-75
2022/03/02 04:24:11;;;;;;;35.70;20.27;;;-2.70;99.90;;;;;;2057190;28;20038;-75
2022/03/02 04:25:12;;;;;;;33.53;20.88;;;-2.70;99.90;;;;;;2057198;28;20800;-74
2022/03/02 04:26:13;;;;;;;37.20;21.13;;;-2.70;99.90;;;;;;2057428;28;20047;-75
2022/03/02 04:27:14;;;;;;;36.20;20.63;;;-2.70;99.90;;;;;;2057539;28;20039;-74
2022/03/02 04:28:14;;;;;;;38.83;21.15;;;-2.70;99.90;;;;;;2056442;28;20030;-73
2022/03/02 04:29:15;;;;;;;34.83;20.13;;;-2.70;99.90;;;;;;2057847;28;20038;-74
2022/03/02 04:30:16;;;;;;;38.05;20.90;;;-2.70;99.90;;;;;;2065990;28;20494;-75
2022/03/02 04:31:17;;;;;;;35.42;20.30;;;-2.70;99.90;;;;;;2066774;28;20030;-74
2022/03/02 04:32:17;;;;;;;37.75;21.10;;;-2.70;99.90;;;;;;2063844;28;20030;-73
2022/03/02 04:33:18;;;;;;;34.85;19.85;;;-2.70;99.90;;;;;;2056484;28;20582;-74
2022/03/02 04:34:19;;;;;;;32.10;20.17;;;-2.70;99.90;;;;;;2056330;28;20042;-74
2022/03/02 04:35:19;;;;;;;36.58;20.60;;;-2.70;99.90;;;;;;2056411;28;20058;-72
2022/03/02 04:36:20;;;;;;;34.65;20.20;;;-2.70;99.90;;;;;;2056557;28;20055;-73
2022/03/02 04:37:21;;;;;;;38.05;20.98;;;-2.70;99.90;;;;;;2056399;28;20066;-74
2022/03/02 04:38:21;;;;;;;37.00;21.08;;;-2.70;99.90;;;;;;2056140;28;20066;-74
2022/03/02 04:39:22;;;;;;;37.78;21.20;;;-2.60;99.90;;;;;;2055995;28;20097;-73
2022/03/02 04:40:23;;;;;;;38.92;20.85;;;-2.60;99.90;;;;;;2056015;28;20034;-73
2022/03/02 04:41:24;;;;;;;36.47;20.75;;;-2.70;99.90;;;;;;2056451;28;20513;-74
2022/03/02 04:42:25;;;;;;;37.92;21.30;;;-2.60;99.90;;;;;;2056734;28;20112;-73
2022/03/02 04:43:25;;;;;;;36.60;20.85;;;-2.60;99.90;;;;;;2063998;28;20577;-74
2022/03/02 04:44:26;;;;;;;34.95;20.63;;;-2.60;99.90;;;;;;2063821;28;20375;-73
2022/03/02 04:45:29;;;;;;;37.58;21.73;;;-2.60;99.90;;;;;;2056403;28;20111;-75
2022/03/02 04:46:30;;;;;;;36.97;21.20;;;-2.60;99.90;;;;;;2063481;28;20162;-77
2022/03/02 04:47:31;;;;;;;36.58;21.30;;;-2.60;99.90;;;;;;2063648;28;20058;-76
2022/03/02 04:48:31;;;;;;;38.28;21.63;;;-2.60;99.90;;;;;;2056562;28;20045;-75
2022/03/02 04:49:32;;;;;;;38.75;21.65;;;-2.60;99.90;;;;;;2056473;28;20062;-74
2022/03/02 04:50:33;;;;;;;37.45;21.80;;;-2.60;99.90;;;;;;2055726;28;20034;-76
2022/03/02 04:51:33;;;;;;;37.20;20.92;;;-2.60;99.90;;;;;;2057178;28;20019;-73
2022/03/02 04:52:34;;;;;;;38.75;21.33;;;-2.50;99.90;;;;;;2057169;28;20019;-75
2022/03/02 04:53:34;;;;;;;38.03;21.70;;;-2.50;99.90;;;;;;2049895;28;20038;-74
2022/03/02 04:55:54;;;;;;;34.10;20.08;;;-2.50;99.90;;;;;;2059407;28;20058;-75
2022/03/02 04:56:55;;;;;;;35.10;20.23;;;-2.50;99.90;;;;;;2059354;28;20173;-74
2022/03/02 04:57:58;;;;;;;33.35;20.13;;;-2.50;99.90;;;;;;2058839;28;20038;-74
2022/03/02 04:59:01;;;;;;;36.00;20.45;;;-2.50;99.90;;;;;;2057907;28;20026;-74
2022/03/02 05:00:09;;;;;;;37.75;21.38;;;-2.50;99.90;;;;;;2058809;28;20493;-75
2022/03/02 05:01:09;;;;;;;37.58;20.80;;;-2.50;99.90;;;;;;2065519;28;20791;-73
2022/03/02 05:02:10;;;;;;;36.35;20.98;;;-2.50;99.90;;;;;;2051235;28;20039;-75
2022/03/02 05:03:11;;;;;;;36.03;21.10;;;-2.50;99.90;;;;;;2059180;28;20170;-73
2022/03/02 05:04:11;;;;;;;36.80;20.85;;;-2.40;99.90;;;;;;2059043;28;20027;-75
2022/03/02 05:05:15;;;;;;;34.13;20.73;;;-2.40;99.90;;;;;;2060054;28;20042;-74
2022/03/02 05:06:16;;;;;;;37.65;21.35;;;-2.40;99.90;;;;;;2061116;28;20034;-75
2022/03/02 05:07:16;;;;;;;34.75;20.08;;;-2.50;99.90;;;;;;2068836;28;20026;-74
2022/03/02 05:08:17;;;;;;;36.00;21.27;;;-2.40;99.90;;;;;;2068492;28;20122;-74
2022/03/02 05:09:17;;;;;;;36.15;21.17;;;-2.40;99.90;;;;;;2050039;29;20026;-74
2022/03/02 05:10:20;;;;;;;36.50;21.65;;;-2.50;99.90;;;;;;2052023;29;20562;-74
2022/03/02 05:11:20;;;;;;;37.53;21.65;;;-2.50;99.90;;;;;;2057532;28;20055;-75
2022/03/02 05:12:21;;;;;;;38.47;22.10;;;-2.50;99.90;;;;;;2057506;28;20824;-75